sensor_id;sensor_type;location;lat;lon;timestamp;P1;durP1;ratioP1;P2;durP2;ratioP2
53781;SDS011;39692;53.114;7.060;2022-11-20T00:01:07;13.77;;;7.65;;
53781;SDS011;39692;53.114;7.060;2022-11-20T00:03:33;13.95;;;8.05;;
53781;SDS011;39692;53.114;7.060;2022-11-20T00:06:02;13.23;;;8.75;;
53781;SDS011;39692;53.114;7.060;2022-11-20T00:08:29;12.68;;;7.40;;
53781;SDS011;39692;53.114;7.060;2022-11-20T00:10:55;14.30;;;8.70;;
53781;SDS011;39692;53.114;7.060;2022-11-20T00:13:21;15.00;;;8.45;;
53781;SDS011;39692;53.114;7.060;2022-11-20T00:15:47;17.35;;;8.95;;
53781;SDS011;39692;53.114;7.060;2022-11-20T00:18:13;13.60;;;7.95;;
53781;SDS011;39692;53.114;7.060;2022-11-20T00:20:39;12.05;;;7.97;;
53781;SDS011;39692;53.114;7.060;2022-11-20T00:23:05;15.05;;;9.07;;
53781;SDS011;39692;53.114;7.060;2022-11-20T00:25:33;13.25;;;8.88;;
53781;SDS011;39692;53.114;7.060;2022-11-20T00:28:00;14.43;;;8.30;;
53781;SDS011;39692;53.114;7.060;2022-11-20T00:30:26;13.93;;;8.00;;
53781;SDS011;39692;53.114;7.060;2022-11-20T00:32:52;18.40;;;9.20;;
53781;SDS011;39692;53.114;7.060;2022-11-20T00:35:18;15.65;;;8.77;;
53781;SDS011;39692;53.114;7.060;2022-11-20T00:37:44;14.82;;;8.30;;
53781;SDS011;39692;53.114;7.060;2022-11-20T00:40:11;11.25;;;7.93;;
53781;SDS011;39692;53.114;7.060;2022-11-20T00:42:37;13.98;;;9.00;;
53781;SDS011;39692;53.114;7.060;2022-11-20T00:45:03;12.65;;;8.43;;
53781;SDS011;39692;53.114;7.060;2022-11-20T00:47:29;13.07;;;7.28;;
53781;SDS011;39692;53.114;7.060;2022-11-20T00:49:55;12.80;;;7.80;;
53781;SDS011;39692;53.114;7.060;2022-11-20T00:52:21;13.60;;;8.90;;
53781;SDS011;39692;53.114;7.060;2022-11-20T00:54:47;15.60;;;8.45;;
53781;SDS011;39692;53.114;7.060;2022-11-20T00:57:13;12.90;;;7.90;;
53781;SDS011;39692;53.114;7.060;2022-11-20T00:59:39;10.82;;;6.68;;
53781;SDS011;39692;53.114;7.060;2022-11-20T01:02:05;13.02;;;7.70;;
53781;SDS011;39692;53.114;7.060;2022-11-20T01:04:31;12.85;;;8.07;;
53781;SDS011;39692;53.114;7.060;2022-11-20T01:06:57;12.30;;;7.13;;
53781;SDS011;39692;53.114;7.060;2022-11-20T01:09:23;10.82;;;6.93;;
53781;SDS011;39692;53.114;7.060;2022-11-20T01:11:49;13.80;;;6.88;;
53781;SDS011;39692;53.114;7.060;2022-11-20T01:14:17;12.60;;;6.20;;
53781;SDS011;39692;53.114;7.060;2022-11-20T01:16:49;13.32;;;7.85;;
53781;SDS011;39692;53.114;7.060;2022-11-20T01:19:19;12.57;;;6.95;;
53781;SDS011;39692;53.114;7.060;2022-11-20T01:21:47;12.30;;;7.18;;
53781;SDS011;39692;53.114;7.060;2022-11-20T01:24:14;10.40;;;5.53;;
53781;SDS011;39692;53.114;7.060;2022-11-20T01:26:41;13.82;;;7.35;;
53781;SDS011;39692;53.114;7.060;2022-11-20T01:29:09;14.23;;;6.65;;
53781;SDS011;39692;53.114;7.060;2022-11-20T01:31:36;12.63;;;7.03;;
53781;SDS011;39692;53.114;7.060;2022-11-20T01:34:20;14.30;;;5.38;;
53781;SDS011;39692;53.114;7.060;2022-11-20T01:36:47;11.45;;;6.85;;
53781;SDS011;39692;53.114;7.060;2022-11-20T01:39:15;11.02;;;6.43;;
53781;SDS011;39692;53.114;7.060;2022-11-20T01:41:41;14.07;;;7.03;;
53781;SDS011;39692;53.114;7.060;2022-11-20T01:46:55;11.30;;;6.65;;
53781;SDS011;39692;53.114;7.060;2022-11-20T01:49:24;14.20;;;6.03;;
53781;SDS011;39692;53.114;7.060;2022-11-20T01:51:52;12.77;;;6.25;;
53781;SDS011;39692;53.114;7.060;2022-11-20T01:54:21;13.52;;;8.07;;
53781;SDS011;39692;53.114;7.060;2022-11-20T01:56:48;14.55;;;8.05;;
53781;SDS011;39692;53.114;7.060;2022-11-20T01:59:18;11.57;;;6.93;;
53781;SDS011;39692;53.114;7.060;2022-11-20T02:01:44;13.07;;;7.28;;
53781;SDS011;39692;53.114;7.060;2022-11-20T02:04:10;12.93;;;7.50;;
53781;SDS011;39692;53.114;7.060;2022-11-20T02:06:42;14.43;;;7.22;;
53781;SDS011;39692;53.114;7.060;2022-11-20T02:09:09;15.57;;;8.07;;
53781;SDS011;39692;53.114;7.060;2022-11-20T02:11:36;14.77;;;7.57;;
53781;SDS011;39692;53.114;7.060;2022-11-20T02:14:02;13.13;;;7.25;;
53781;SDS011;39692;53.114;7.060;2022-11-20T02:16:30;13.57;;;7.28;;
53781;SDS011;39692;53.114;7.060;2022-11-20T02:18:58;12.88;;;7.05;;
53781;SDS011;39692;53.114;7.060;2022-11-20T02:21:27;11.23;;;7.03;;
53781;SDS011;39692;53.114;7.060;2022-11-20T02:24:01;14.30;;;7.22;;
53781;SDS011;39692;53.114;7.060;2022-11-20T02:26:28;18.67;;;8.23;;
53781;SDS011;39692;53.114;7.060;2022-11-20T02:28:55;14.95;;;7.57;;
53781;SDS011;39692;53.114;7.060;2022-11-20T02:31:22;17.83;;;8.32;;
53781;SDS011;39692;53.114;7.060;2022-11-20T02:33:53;14.02;;;8.05;;
53781;SDS011;39692;53.114;7.060;2022-11-20T02:36:19;14.07;;;7.28;;
53781;SDS011;39692;53.114;7.060;2022-11-20T02:38:45;11.05;;;6.22;;
53781;SDS011;39692;53.114;7.060;2022-11-20T02:41:12;11.80;;;7.07;;
53781;SDS011;39692;53.114;7.060;2022-11-20T02:43:38;10.27;;;6.88;;
53781;SDS011;39692;53.114;7.060;2022-11-20T02:46:06;10.25;;;6.68;;
53781;SDS011;39692;53.114;7.060;2022-11-20T02:48:32;12.82;;;7.68;;
53781;SDS011;39692;53.114;7.060;2022-11-20T02:50:58;15.45;;;8.40;;
53781;SDS011;39692;53.114;7.060;2022-11-20T02:53:24;18.33;;;9.70;;
53781;SDS011;39692;53.114;7.060;2022-11-20T02:55:50;19.63;;;11.25;;
53781;SDS011;39692;53.114;7.060;2022-11-20T02:58:16;20.50;;;11.27;;
53781;SDS011;39692;53.114;7.060;2022-11-20T03:00:42;20.15;;;11.77;;
53781;SDS011;39692;53.114;7.060;2022-11-20T03:03:08;18.50;;;10.10;;
53781;SDS011;39692;53.114;7.060;2022-11-20T03:05:34;17.85;;;10.50;;
53781;SDS011;39692;53.114;7.060;2022-11-20T03:08:01;13.88;;;7.78;;
53781;SDS011;39692;53.114;7.060;2022-11-20T03:10:27;12.38;;;8.00;;
53781;SDS011;39692;53.114;7.060;2022-11-20T03:12:53;11.25;;;7.70;;
53781;SDS011;39692;53.114;7.060;2022-11-20T03:15:20;13.13;;;7.25;;
53781;SDS011;39692;53.114;7.060;2022-11-20T03:17:46;13.38;;;7.57;;
53781;SDS011;39692;53.114;7.060;2022-11-20T03:20:12;13.50;;;8.25;;
53781;SDS011;39692;53.114;7.060;2022-11-20T03:22:38;13.85;;;7.20;;
53781;SDS011;39692;53.114;7.060;2022-11-20T03:25:05;14.25;;;9.40;;
53781;SDS011;39692;53.114;7.060;2022-11-20T03:27:31;19.00;;;10.25;;
53781;SDS011;39692;53.114;7.060;2022-11-20T03:29:58;18.00;;;9.50;;
53781;SDS011;39692;53.114;7.060;2022-11-20T03:32:24;20.90;;;11.40;;
53781;SDS011;39692;53.114;7.060;2022-11-20T03:34:50;15.80;;;9.55;;
53781;SDS011;39692;53.114;7.060;2022-11-20T03:37:16;18.65;;;10.23;;
53781;SDS011;39692;53.114;7.060;2022-11-20T03:39:42;16.98;;;9.73;;
53781;SDS011;39692;53.114;7.060;2022-11-20T03:42:08;16.60;;;9.02;;
53781;SDS011;39692;53.114;7.060;2022-11-20T03:44:54;18.77;;;9.20;;
53781;SDS011;39692;53.114;7.060;2022-11-20T03:47:20;9.60;;;7.03;;
53781;SDS011;39692;53.114;7.060;2022-11-20T03:49:46;16.25;;;7.63;;
53781;SDS011;39692;53.114;7.060;2022-11-20T03:52:12;12.90;;;7.20;;
53781;SDS011;39692;53.114;7.060;2022-11-20T03:54:38;19.30;;;8.73;;
53781;SDS011;39692;53.114;7.060;2022-11-20T03:57:04;14.55;;;8.32;;
53781;SDS011;39692;53.114;7.060;2022-11-20T03:59:30;12.20;;;7.47;;
53781;SDS011;39692;53.114;7.060;2022-11-20T04:01:56;14.38;;;7.70;;
53781;SDS011;39692;53.114;7.060;2022-11-20T04:04:22;13.27;;;7.85;;
53781;SDS011;39692;53.114;7.060;2022-11-20T04:06:48;10.07;;;6.38;;
53781;SDS011;39692;53.114;7.060;2022-11-20T04:09:14;13.77;;;7.55;;
53781;SDS011;39692;53.114;7.060;2022-11-20T04:11:40;11.60;;;6.50;;
53781;SDS011;39692;53.114;7.060;2022-11-20T04:14:12;12.05;;;6.78;;
53781;SDS011;39692;53.114;7.060;2022-11-20T04:16:38;12.55;;;7.00;;
53781;SDS011;39692;53.114;7.060;2022-11-20T04:19:05;13.32;;;7.15;;
53781;SDS011;39692;53.114;7.060;2022-11-20T04:21:32;11.60;;;6.30;;
53781;SDS011;39692;53.114;7.060;2022-11-20T04:23:58;14.00;;;7.45;;
53781;SDS011;39692;53.114;7.060;2022-11-20T04:26:25;14.40;;;8.35;;
53781;SDS011;39692;53.114;7.060;2022-11-20T04:28:51;12.63;;;7.32;;
53781;SDS011;39692;53.114;7.060;2022-11-20T04:31:19;11.13;;;6.95;;
53781;SDS011;39692;53.114;7.060;2022-11-20T04:33:45;11.20;;;6.47;;
53781;SDS011;39692;53.114;7.060;2022-11-20T04:36:13;12.63;;;7.20;;
53781;SDS011;39692;53.114;7.060;2022-11-20T04:38:39;12.55;;;7.47;;
53781;SDS011;39692;53.114;7.060;2022-11-20T04:41:07;9.32;;;6.03;;
53781;SDS011;39692;53.114;7.060;2022-11-20T04:43:33;11.27;;;7.45;;
53781;SDS011;39692;53.114;7.060;2022-11-20T04:46:01;12.40;;;7.03;;
53781;SDS011;39692;53.114;7.060;2022-11-20T04:48:27;12.57;;;7.47;;
53781;SDS011;39692;53.114;7.060;2022-11-20T04:50:54;12.63;;;7.75;;
53781;SDS011;39692;53.114;7.060;2022-11-20T04:53:20;12.48;;;7.07;;
53781;SDS011;39692;53.114;7.060;2022-11-20T04:55:47;11.00;;;7.03;;
53781;SDS011;39692;53.114;7.060;2022-11-20T04:58:13;11.45;;;7.18;;
53781;SDS011;39692;53.114;7.060;2022-11-20T05:00:39;13.77;;;7.85;;
53781;SDS011;39692;53.114;7.060;2022-11-20T05:03:05;12.00;;;6.30;;
53781;SDS011;39692;53.114;7.060;2022-11-20T05:05:33;15.15;;;7.10;;
53781;SDS011;39692;53.114;7.060;2022-11-20T05:07:59;13.10;;;7.43;;
53781;SDS011;39692;53.114;7.060;2022-11-20T05:10:25;12.95;;;6.57;;
53781;SDS011;39692;53.114;7.060;2022-11-20T05:12:52;13.70;;;6.65;;
53781;SDS011;39692;53.114;7.060;2022-11-20T05:15:18;13.13;;;7.90;;
53781;SDS011;39692;53.114;7.060;2022-11-20T05:17:50;11.93;;;6.68;;
53781;SDS011;39692;53.114;7.060;2022-11-20T05:20:17;14.18;;;7.07;;
53781;SDS011;39692;53.114;7.060;2022-11-20T05:22:43;14.45;;;8.65;;
53781;SDS011;39692;53.114;7.060;2022-11-20T05:25:10;10.23;;;6.90;;
53781;SDS011;39692;53.114;7.060;2022-11-20T05:27:36;12.93;;;7.78;;
53781;SDS011;39692;53.114;7.060;2022-11-20T05:30:03;14.27;;;8.43;;
53781;SDS011;39692;53.114;7.060;2022-11-20T05:32:29;14.93;;;7.40;;
53781;SDS011;39692;53.114;7.060;2022-11-20T05:34:55;12.27;;;7.05;;
53781;SDS011;39692;53.114;7.060;2022-11-20T05:37:21;12.73;;;6.57;;
53781;SDS011;39692;53.114;7.060;2022-11-20T05:39:48;12.18;;;6.63;;
53781;SDS011;39692;53.114;7.060;2022-11-20T05:42:14;13.65;;;7.15;;
53781;SDS011;39692;53.114;7.060;2022-11-20T05:44:55;13.00;;;7.07;;
53781;SDS011;39692;53.114;7.060;2022-11-20T05:47:21;14.80;;;6.80;;
53781;SDS011;39692;53.114;7.060;2022-11-20T05:49:47;12.13;;;7.38;;
53781;SDS011;39692;53.114;7.060;2022-11-20T05:52:13;12.10;;;7.13;;
53781;SDS011;39692;53.114;7.060;2022-11-20T05:54:39;11.80;;;6.47;;
53781;SDS011;39692;53.114;7.060;2022-11-20T05:57:05;13.40;;;7.38;;
53781;SDS011;39692;53.114;7.060;2022-11-20T05:59:31;15.30;;;8.13;;
53781;SDS011;39692;53.114;7.060;2022-11-20T06:01:57;10.95;;;6.57;;
53781;SDS011;39692;53.114;7.060;2022-11-20T06:04:23;12.20;;;6.55;;
53781;SDS011;39692;53.114;7.060;2022-11-20T06:06:49;11.00;;;6.93;;
53781;SDS011;39692;53.114;7.060;2022-11-20T06:09:15;12.50;;;7.72;;
53781;SDS011;39692;53.114;7.060;2022-11-20T06:11:41;11.75;;;7.25;;
53781;SDS011;39692;53.114;7.060;2022-11-20T06:14:07;13.45;;;7.75;;
53781;SDS011;39692;53.114;7.060;2022-11-20T06:16:33;14.35;;;7.75;;
53781;SDS011;39692;53.114;7.060;2022-11-20T06:18:59;13.82;;;8.32;;
53781;SDS011;39692;53.114;7.060;2022-11-20T06:21:25;14.48;;;7.20;;
53781;SDS011;39692;53.114;7.060;2022-11-20T06:23:52;14.85;;;8.02;;
53781;SDS011;39692;53.114;7.060;2022-11-20T06:26:19;11.32;;;6.93;;
53781;SDS011;39692;53.114;7.060;2022-11-20T06:28:46;14.68;;;7.13;;
53781;SDS011;39692;53.114;7.060;2022-11-20T06:31:13;12.48;;;6.53;;
53781;SDS011;39692;53.114;7.060;2022-11-20T06:33:40;9.93;;;5.78;;
53781;SDS011;39692;53.114;7.060;2022-11-20T06:36:06;14.80;;;6.65;;
53781;SDS011;39692;53.114;7.060;2022-11-20T06:38:33;11.65;;;6.63;;
53781;SDS011;39692;53.114;7.060;2022-11-20T06:40:59;10.18;;;6.63;;
53781;SDS011;39692;53.114;7.060;2022-11-20T06:43:26;8.88;;;6.38;;
53781;SDS011;39692;53.114;7.060;2022-11-20T06:45:54;15.38;;;6.47;;
53781;SDS011;39692;53.114;7.060;2022-11-20T06:48:21;10.93;;;5.82;;
53781;SDS011;39692;53.114;7.060;2022-11-20T06:50:47;10.60;;;6.95;;
53781;SDS011;39692;53.114;7.060;2022-11-20T06:53:13;14.57;;;7.43;;
53781;SDS011;39692;53.114;7.060;2022-11-20T06:55:42;15.48;;;8.02;;
53781;SDS011;39692;53.114;7.060;2022-11-20T06:58:09;12.98;;;7.32;;
53781;SDS011;39692;53.114;7.060;2022-11-20T07:00:35;13.30;;;6.20;;
53781;SDS011;39692;53.114;7.060;2022-11-20T07:03:04;11.00;;;7.10;;
53781;SDS011;39692;53.114;7.060;2022-11-20T07:05:30;13.05;;;6.22;;
53781;SDS011;39692;53.114;7.060;2022-11-20T07:07:57;14.50;;;6.95;;
53781;SDS011;39692;53.114;7.060;2022-11-20T07:10:23;10.30;;;7.13;;
53781;SDS011;39692;53.114;7.060;2022-11-20T07:12:50;13.02;;;6.00;;
53781;SDS011;39692;53.114;7.060;2022-11-20T07:15:16;10.02;;;6.00;;
53781;SDS011;39692;53.114;7.060;2022-11-20T07:17:42;13.45;;;6.75;;
53781;SDS011;39692;53.114;7.060;2022-11-20T07:20:09;9.63;;;6.25;;
53781;SDS011;39692;53.114;7.060;2022-11-20T07:22:35;12.27;;;7.15;;
53781;SDS011;39692;53.114;7.060;2022-11-20T07:25:01;9.18;;;5.97;;
53781;SDS011;39692;53.114;7.060;2022-11-20T07:27:27;11.80;;;7.03;;
53781;SDS011;39692;53.114;7.060;2022-11-20T07:29:53;11.00;;;6.22;;
53781;SDS011;39692;53.114;7.060;2022-11-20T07:32:19;10.63;;;7.45;;
53781;SDS011;39692;53.114;7.060;2022-11-20T07:34:45;10.10;;;6.25;;
53781;SDS011;39692;53.114;7.060;2022-11-20T07:37:12;12.18;;;6.68;;
53781;SDS011;39692;53.114;7.060;2022-11-20T07:39:38;12.07;;;6.15;;
53781;SDS011;39692;53.114;7.060;2022-11-20T07:42:05;13.15;;;6.00;;
53781;SDS011;39692;53.114;7.060;2022-11-20T07:44:31;13.38;;;6.82;;
53781;SDS011;39692;53.114;7.060;2022-11-20T07:46:57;11.68;;;6.38;;
53781;SDS011;39692;53.114;7.060;2022-11-20T07:49:23;10.43;;;6.10;;
53781;SDS011;39692;53.114;7.060;2022-11-20T07:51:50;13.45;;;6.00;;
53781;SDS011;39692;53.114;7.060;2022-11-20T07:54:16;12.20;;;6.97;;
53781;SDS011;39692;53.114;7.060;2022-11-20T07:56:42;12.82;;;6.10;;
53781;SDS011;39692;53.114;7.060;2022-11-20T07:59:08;10.13;;;5.05;;
53781;SDS011;39692;53.114;7.060;2022-11-20T08:01:36;13.18;;;5.90;;
53781;SDS011;39692;53.114;7.060;2022-11-20T08:04:02;11.90;;;6.20;;
53781;SDS011;39692;53.114;7.060;2022-11-20T08:06:29;8.57;;;5.30;;
53781;SDS011;39692;53.114;7.060;2022-11-20T08:08:55;8.85;;;5.50;;
53781;SDS011;39692;53.114;7.060;2022-11-20T08:11:21;11.57;;;5.28;;
53781;SDS011;39692;53.114;7.060;2022-11-20T08:14:05;12.73;;;5.97;;
53781;SDS011;39692;53.114;7.060;2022-11-20T08:16:41;9.20;;;5.53;;
53781;SDS011;39692;53.114;7.060;2022-11-20T08:19:08;10.93;;;6.80;;
53781;SDS011;39692;53.114;7.060;2022-11-20T08:21:34;12.50;;;6.22;;
53781;SDS011;39692;53.114;7.060;2022-11-20T08:24:00;8.82;;;5.70;;
53781;SDS011;39692;53.114;7.060;2022-11-20T08:26:26;11.45;;;6.35;;
53781;SDS011;39692;53.114;7.060;2022-11-20T08:28:53;12.60;;;6.43;;
53781;SDS011;39692;53.114;7.060;2022-11-20T08:31:20;9.10;;;5.75;;
53781;SDS011;39692;53.114;7.060;2022-11-20T08:33:46;8.25;;;5.40;;
53781;SDS011;39692;53.114;7.060;2022-11-20T08:36:12;12.75;;;5.93;;
53781;SDS011;39692;53.114;7.060;2022-11-20T08:38:38;11.13;;;5.90;;
53781;SDS011;39692;53.114;7.060;2022-11-20T08:41:05;11.02;;;6.35;;
53781;SDS011;39692;53.114;7.060;2022-11-20T08:43:51;10.07;;;6.07;;
53781;SDS011;39692;53.114;7.060;2022-11-20T08:46:17;8.75;;;5.50;;
53781;SDS011;39692;53.114;7.060;2022-11-20T08:48:43;13.13;;;6.13;;
53781;SDS011;39692;53.114;7.060;2022-11-20T08:51:10;9.50;;;6.03;;
53781;SDS011;39692;53.114;7.060;2022-11-20T08:53:36;9.45;;;5.90;;
53781;SDS011;39692;53.114;7.060;2022-11-20T08:56:03;8.30;;;5.50;;
53781;SDS011;39692;53.114;7.060;2022-11-20T08:58:29;9.52;;;5.75;;
53781;SDS011;39692;53.114;7.060;2022-11-20T09:00:55;9.48;;;6.53;;
53781;SDS011;39692;53.114;7.060;2022-11-20T09:03:21;9.80;;;5.78;;
53781;SDS011;39692;53.114;7.060;2022-11-20T09:05:47;10.77;;;6.53;;
53781;SDS011;39692;53.114;7.060;2022-11-20T09:08:13;10.60;;;5.88;;
53781;SDS011;39692;53.114;7.060;2022-11-20T09:10:39;9.27;;;5.85;;
53781;SDS011;39692;53.114;7.060;2022-11-20T09:13:05;9.13;;;6.20;;
53781;SDS011;39692;53.114;7.060;2022-11-20T09:15:32;9.13;;;6.28;;
53781;SDS011;39692;53.114;7.060;2022-11-20T09:17:59;10.05;;;6.25;;
53781;SDS011;39692;53.114;7.060;2022-11-20T09:20:26;9.82;;;6.95;;
53781;SDS011;39692;53.114;7.060;2022-11-20T09:22:53;8.68;;;6.00;;
53781;SDS011;39692;53.114;7.060;2022-11-20T09:25:20;11.55;;;6.63;;
53781;SDS011;39692;53.114;7.060;2022-11-20T09:27:46;9.25;;;6.10;;
53781;SDS011;39692;53.114;7.060;2022-11-20T09:30:12;10.13;;;6.10;;
53781;SDS011;39692;53.114;7.060;2022-11-20T09:32:39;11.80;;;6.03;;
53781;SDS011;39692;53.114;7.060;2022-11-20T09:35:05;10.80;;;6.10;;
53781;SDS011;39692;53.114;7.060;2022-11-20T09:37:31;12.68;;;6.07;;
53781;SDS011;39692;53.114;7.060;2022-11-20T09:39:57;11.20;;;6.30;;
53781;SDS011;39692;53.114;7.060;2022-11-20T09:55:46;12.10;;;6.45;;
53781;SDS011;39692;53.114;7.060;2022-11-20T09:58:33;10.70;;;6.38;;
53781;SDS011;39692;53.114;7.060;2022-11-20T10:03:41;9.02;;;5.30;;
53781;SDS011;39692;53.114;7.060;2022-11-20T10:06:11;12.50;;;7.05;;
53781;SDS011;39692;53.114;7.060;2022-11-20T10:08:43;9.63;;;5.70;;
53781;SDS011;39692;53.114;7.060;2022-11-20T10:11:21;11.15;;;5.90;;
53781;SDS011;39692;53.114;7.060;2022-11-20T10:19:35;10.00;;;5.88;;
53781;SDS011;39692;53.114;7.060;2022-11-20T10:22:21;10.48;;;6.25;;
53781;SDS011;39692;53.114;7.060;2022-11-20T10:24:56;8.82;;;5.07;;
53781;SDS011;39692;53.114;7.060;2022-11-20T10:29:53;11.23;;;6.22;;
53781;SDS011;39692;53.114;7.060;2022-11-20T10:32:23;10.33;;;6.13;;
53781;SDS011;39692;53.114;7.060;2022-11-20T10:34:57;10.27;;;5.32;;
53781;SDS011;39692;53.114;7.060;2022-11-20T10:37:25;9.30;;;5.72;;
53781;SDS011;39692;53.114;7.060;2022-11-20T10:43:04;11.07;;;6.20;;
53781;SDS011;39692;53.114;7.060;2022-11-20T10:45:21;11.15;;;6.05;;
53781;SDS011;39692;53.114;7.060;2022-11-20T10:50:25;10.30;;;6.60;;
53781;SDS011;39692;53.114;7.060;2022-11-20T10:52:59;9.25;;;5.15;;
53781;SDS011;39692;53.114;7.060;2022-11-20T10:55:45;9.82;;;5.55;;
53781;SDS011;39692;53.114;7.060;2022-11-20T11:00:47;15.23;;;6.50;;
53781;SDS011;39692;53.114;7.060;2022-11-20T11:03:20;10.63;;;5.85;;
53781;SDS011;39692;53.114;7.060;2022-11-20T11:08:32;8.60;;;5.85;;
53781;SDS011;39692;53.114;7.060;2022-11-20T11:11:02;10.27;;;5.90;;
53781;SDS011;39692;53.114;7.060;2022-11-20T11:13:31;12.68;;;6.80;;
53781;SDS011;39692;53.114;7.060;2022-11-20T11:15:57;9.38;;;5.15;;
53781;SDS011;39692;53.114;7.060;2022-11-20T11:18:27;7.70;;;4.88;;
53781;SDS011;39692;53.114;7.060;2022-11-20T11:20:55;8.57;;;4.72;;
53781;SDS011;39692;53.114;7.060;2022-11-20T11:23:26;9.60;;;5.28;;
53781;SDS011;39692;53.114;7.060;2022-11-20T11:25:58;8.38;;;5.18;;
53781;SDS011;39692;53.114;7.060;2022-11-20T11:28:24;13.15;;;5.35;;
53781;SDS011;39692;53.114;7.060;2022-11-20T11:30:52;10.63;;;5.53;;
53781;SDS011;39692;53.114;7.060;2022-11-20T11:33:19;11.38;;;5.75;;
53781;SDS011;39692;53.114;7.060;2022-11-20T11:35:49;7.47;;;4.82;;
53781;SDS011;39692;53.114;7.060;2022-11-20T11:38:39;8.20;;;4.63;;
53781;SDS011;39692;53.114;7.060;2022-11-20T11:41:08;7.25;;;4.13;;
53781;SDS011;39692;53.114;7.060;2022-11-20T11:43:35;9.30;;;5.68;;
53781;SDS011;39692;53.114;7.060;2022-11-20T11:52:17;9.05;;;4.93;;
53781;SDS011;39692;53.114;7.060;2022-11-20T11:54:22;10.23;;;4.85;;
53781;SDS011;39692;53.114;7.060;2022-11-20T11:56:49;9.82;;;5.45;;
53781;SDS011;39692;53.114;7.060;2022-11-20T11:59:25;8.63;;;5.22;;
53781;SDS011;39692;53.114;7.060;2022-11-20T12:02:00;9.45;;;5.10;;
53781;SDS011;39692;53.114;7.060;2022-11-20T12:07:00;10.90;;;6.75;;
53781;SDS011;39692;53.114;7.060;2022-11-20T12:09:32;8.50;;;4.90;;
53781;SDS011;39692;53.114;7.060;2022-11-20T12:12:10;11.70;;;5.80;;
53781;SDS011;39692;53.114;7.060;2022-11-20T12:14:37;8.73;;;4.72;;
53781;SDS011;39692;53.114;7.060;2022-11-20T12:17:04;9.20;;;4.88;;
53781;SDS011;39692;53.114;7.060;2022-11-20T12:19:31;9.85;;;5.70;;
53781;SDS011;39692;53.114;7.060;2022-11-20T12:39:41;7.22;;;3.88;;
53781;SDS011;39692;53.114;7.060;2022-11-20T12:42:26;6.93;;;4.30;;
53781;SDS011;39692;53.114;7.060;2022-11-20T12:50:18;8.10;;;4.57;;
53781;SDS011;39692;53.114;7.060;2022-11-20T12:55:25;6.50;;;3.95;;
53781;SDS011;39692;53.114;7.060;2022-11-20T12:57:56;6.93;;;3.85;;
53781;SDS011;39692;53.114;7.060;2022-11-20T13:00:23;6.07;;;3.33;;
53781;SDS011;39692;53.114;7.060;2022-11-20T13:05:21;6.28;;;3.85;;
53781;SDS011;39692;53.114;7.060;2022-11-20T13:07:50;5.43;;;3.35;;
53781;SDS011;39692;53.114;7.060;2022-11-20T13:12:49;5.10;;;3.15;;
53781;SDS011;39692;53.114;7.060;2022-11-20T13:20:19;5.65;;;3.03;;
53781;SDS011;39692;53.114;7.060;2022-11-20T13:22:47;6.30;;;3.60;;
53781;SDS011;39692;53.114;7.060;2022-11-20T13:27:58;6.78;;;3.70;;
53781;SDS011;39692;53.114;7.060;2022-11-20T13:30:25;5.85;;;3.38;;
53781;SDS011;39692;53.114;7.060;2022-11-20T13:32:56;5.50;;;3.10;;
53781;SDS011;39692;53.114;7.060;2022-11-20T13:35:42;6.97;;;3.53;;
53781;SDS011;39692;53.114;7.060;2022-11-20T13:38:09;6.90;;;3.93;;
53781;SDS011;39692;53.114;7.060;2022-11-20T13:40:37;9.52;;;4.60;;
53781;SDS011;39692;53.114;7.060;2022-11-20T13:45:30;9.02;;;5.38;;
53781;SDS011;39692;53.114;7.060;2022-11-20T13:47:56;7.95;;;4.97;;
53781;SDS011;39692;53.114;7.060;2022-11-20T13:50:32;9.60;;;5.05;;
53781;SDS011;39692;53.114;7.060;2022-11-20T13:55:38;10.40;;;5.75;;
53781;SDS011;39692;53.114;7.060;2022-11-20T14:00:45;6.85;;;3.28;;
53781;SDS011;39692;53.114;7.060;2022-11-20T14:03:18;6.10;;;3.65;;
53781;SDS011;39692;53.114;7.060;2022-11-20T14:05:54;7.32;;;4.50;;
53781;SDS011;39692;53.114;7.060;2022-11-20T14:08:35;10.60;;;5.55;;
53781;SDS011;39692;53.114;7.060;2022-11-20T14:11:11;15.07;;;6.57;;
53781;SDS011;39692;53.114;7.060;2022-11-20T14:13:38;9.07;;;4.95;;
53781;SDS011;39692;53.114;7.060;2022-11-20T14:16:04;8.85;;;5.57;;
53781;SDS011;39692;53.114;7.060;2022-11-20T14:18:30;8.02;;;4.25;;
53781;SDS011;39692;53.114;7.060;2022-11-20T14:20:59;8.93;;;5.05;;
53781;SDS011;39692;53.114;7.060;2022-11-20T14:23:26;11.77;;;5.15;;
53781;SDS011;39692;53.114;7.060;2022-11-20T14:25:52;7.43;;;4.63;;
53781;SDS011;39692;53.114;7.060;2022-11-20T14:28:21;9.02;;;4.55;;
53781;SDS011;39692;53.114;7.060;2022-11-20T14:30:50;9.80;;;4.72;;
53781;SDS011;39692;53.114;7.060;2022-11-20T14:33:16;7.40;;;4.72;;
53781;SDS011;39692;53.114;7.060;2022-11-20T14:35:48;9.77;;;4.90;;
53781;SDS011;39692;53.114;7.060;2022-11-20T14:38:16;11.65;;;5.43;;
53781;SDS011;39692;53.114;7.060;2022-11-20T14:40:42;8.85;;;5.47;;
53781;SDS011;39692;53.114;7.060;2022-11-20T14:43:22;6.90;;;4.57;;
53781;SDS011;39692;53.114;7.060;2022-11-20T14:45:52;8.32;;;4.90;;
53781;SDS011;39692;53.114;7.060;2022-11-20T14:48:22;7.10;;;4.38;;
53781;SDS011;39692;53.114;7.060;2022-11-20T14:50:49;9.70;;;4.88;;
53781;SDS011;39692;53.114;7.060;2022-11-20T14:53:21;10.93;;;5.82;;
53781;SDS011;39692;53.114;7.060;2022-11-20T14:55:53;9.23;;;4.85;;
53781;SDS011;39692;53.114;7.060;2022-11-20T14:58:20;9.13;;;5.18;;
53781;SDS011;39692;53.114;7.060;2022-11-20T15:00:54;9.57;;;5.72;;
53781;SDS011;39692;53.114;7.060;2022-11-20T15:03:21;9.30;;;5.18;;
53781;SDS011;39692;53.114;7.060;2022-11-20T15:05:48;6.20;;;3.80;;
53781;SDS011;39692;53.114;7.060;2022-11-20T15:08:14;7.65;;;4.47;;
53781;SDS011;39692;53.114;7.060;2022-11-20T15:10:48;7.05;;;4.68;;
53781;SDS011;39692;53.114;7.060;2022-11-20T15:13:16;10.05;;;5.55;;
53781;SDS011;39692;53.114;7.060;2022-11-20T15:15:49;9.52;;;5.85;;
53781;SDS011;39692;53.114;7.060;2022-11-20T15:18:19;9.55;;;5.10;;
53781;SDS011;39692;53.114;7.060;2022-11-20T15:20:47;9.82;;;5.22;;
53781;SDS011;39692;53.114;7.060;2022-11-20T15:23:14;8.82;;;4.32;;
53781;SDS011;39692;53.114;7.060;2022-11-20T15:25:41;10.13;;;6.28;;
53781;SDS011;39692;53.114;7.060;2022-11-20T15:28:13;11.07;;;5.95;;
53781;SDS011;39692;53.114;7.060;2022-11-20T15:30:41;10.82;;;5.15;;
53781;SDS011;39692;53.114;7.060;2022-11-20T15:33:08;8.50;;;5.18;;
53781;SDS011;39692;53.114;7.060;2022-11-20T15:35:34;8.02;;;4.75;;
53781;SDS011;39692;53.114;7.060;2022-11-20T15:38:00;8.50;;;4.97;;
53781;SDS011;39692;53.114;7.060;2022-11-20T15:40:26;9.27;;;5.00;;
53781;SDS011;39692;53.114;7.060;2022-11-20T15:42:52;8.32;;;4.68;;
53781;SDS011;39692;53.114;7.060;2022-11-20T15:45:28;8.68;;;4.68;;
53781;SDS011;39692;53.114;7.060;2022-11-20T15:47:54;7.50;;;5.00;;
53781;SDS011;39692;53.114;7.060;2022-11-20T15:50:21;7.43;;;4.13;;
53781;SDS011;39692;53.114;7.060;2022-11-20T15:52:47;10.02;;;5.07;;
53781;SDS011;39692;53.114;7.060;2022-11-20T15:55:13;8.90;;;5.20;;
53781;SDS011;39692;53.114;7.060;2022-11-20T15:57:39;10.90;;;5.28;;
53781;SDS011;39692;53.114;7.060;2022-11-20T16:00:05;7.25;;;5.30;;
53781;SDS011;39692;53.114;7.060;2022-11-20T16:02:32;14.38;;;6.28;;
53781;SDS011;39692;53.114;7.060;2022-11-20T16:04:58;8.90;;;4.93;;
53781;SDS011;39692;53.114;7.060;2022-11-20T16:07:24;9.10;;;4.65;;
53781;SDS011;39692;53.114;7.060;2022-11-20T16:09:50;9.73;;;4.95;;
53781;SDS011;39692;53.114;7.060;2022-11-20T16:12:16;7.82;;;4.90;;
53781;SDS011;39692;53.114;7.060;2022-11-20T16:15:02;8.73;;;5.07;;